sensor_id;sensor_type;location;lat;lon;timestamp;temperature;humidity
75985;DHT22;65033;44.660;37.758;2024-01-27T00:00:21;6.14;80.70
75985;DHT22;65033;44.660;37.758;2024-01-27T00:01:24;6.16;80.64
75985;DHT22;65033;44.660;37.758;2024-01-27T00:02:28;6.13;80.65
75985;DHT22;65033;44.660;37.758;2024-01-27T00:03:33;6.12;80.83
75985;DHT22;65033;44.660;37.758;2024-01-27T00:04:36;6.14;81.17
75985;DHT22;65033;44.660;37.758;2024-01-27T00:05:40;6.21;81.01
75985;DHT22;65033;44.660;37.758;2024-01-27T00:06:43;6.24;80.75
75985;DHT22;65033;44.660;37.758;2024-01-27T00:07:47;6.26;80.41
75985;DHT22;65033;44.660;37.758;2024-01-27T00:08:50;6.26;80.53
75985;DHT22;65033;44.660;37.758;2024-01-27T00:09:54;6.25;80.42
75985;DHT22;65033;44.660;37.758;2024-01-27T00:10:58;6.23;80.52
75985;DHT22;65033;44.660;37.758;2024-01-27T00:12:04;6.17;80.65
75985;DHT22;65033;44.660;37.758;2024-01-27T00:13:07;6.16;81.08
75985;DHT22;65033;44.660;37.758;2024-01-27T00:14:11;6.13;81.13
75985;DHT22;65033;44.660;37.758;2024-01-27T00:15:14;6.11;81.28
75985;DHT22;65033;44.660;37.758;2024-01-27T00:16:18;6.10;81.42
75985;DHT22;65033;44.660;37.758;2024-01-27T00:17:21;6.09;81.46
75985;DHT22;65033;44.660;37.758;2024-01-27T00:18:28;6.08;81.43
75985;DHT22;65033;44.660;37.758;2024-01-27T00:19:31;6.09;81.43
75985;DHT22;65033;44.660;37.758;2024-01-27T00:20:35;6.11;81.35
75985;DHT22;65033;44.660;37.758;2024-01-27T00:21:39;6.15;81.11
75985;DHT22;65033;44.660;37.758;2024-01-27T00:22:42;6.21;81.31
75985;DHT22;65033;44.660;37.758;2024-01-27T00:23:46;6.26;81.00
75985;DHT22;65033;44.660;37.758;2024-01-27T00:24:50;6.33;80.67
75985;DHT22;65033;44.660;37.758;2024-01-27T00:25:53;6.39;80.52
75985;DHT22;65033;44.660;37.758;2024-01-27T00:26:57;6.43;80.19
75985;DHT22;65033;44.660;37.758;2024-01-27T00:28:02;6.49;79.75
75985;DHT22;65033;44.660;37.758;2024-01-27T00:29:05;6.51;79.27
75985;DHT22;65033;44.660;37.758;2024-01-27T00:30:09;6.56;78.88
75985;DHT22;65033;44.660;37.758;2024-01-27T00:31:14;6.64;78.43
75985;DHT22;65033;44.660;37.758;2024-01-27T00:32:18;6.70;78.14
75985;DHT22;65033;44.660;37.758;2024-01-27T00:33:22;6.75;77.71
75985;DHT22;65033;44.660;37.758;2024-01-27T00:34:25;6.78;77.71
75985;DHT22;65033;44.660;37.758;2024-01-27T00:35:28;6.84;77.24
75985;DHT22;65033;44.660;37.758;2024-01-27T00:36:32;6.86;76.66
75985;DHT22;65033;44.660;37.758;2024-01-27T00:37:35;6.84;76.82
75985;DHT22;65033;44.660;37.758;2024-01-27T00:38:39;6.83;76.90
75985;DHT22;65033;44.660;37.758;2024-01-27T00:39:43;6.82;77.00
75985;DHT22;65033;44.660;37.758;2024-01-27T00:40:46;6.80;77.27
75985;DHT22;65033;44.660;37.758;2024-01-27T00:41:51;6.76;77.54
75985;DHT22;65033;44.660;37.758;2024-01-27T00:42:55;6.78;77.27
75985;DHT22;65033;44.660;37.758;2024-01-27T00:44:00;6.75;77.59
75985;DHT22;65033;44.660;37.758;2024-01-27T00:45:05;6.73;77.68
75985;DHT22;65033;44.660;37.758;2024-01-27T00:46:09;6.73;77.72
75985;DHT22;65033;44.660;37.758;2024-01-27T00:47:12;6.75;77.40
75985;DHT22;65033;44.660;37.758;2024-01-27T00:48:16;6.74;77.40
75985;DHT22;65033;44.660;37.758;2024-01-27T00:49:20;6.75;77.66
75985;DHT22;65033;44.660;37.758;2024-01-27T00:50:24;6.75;77.99
75985;DHT22;65033;44.660;37.758;2024-01-27T00:51:27;6.72;77.44
75985;DHT22;65033;44.660;37.758;2024-01-27T00:52:30;6.74;77.44
75985;DHT22;65033;44.660;37.758;2024-01-27T00:53:34;6.70;77.77
75985;DHT22;65033;44.660;37.758;2024-01-27T00:54:37;6.72;77.44
75985;DHT22;65033;44.660;37.758;2024-01-27T00:55:42;6.71;77.38
75985;DHT22;65033;44.660;37.758;2024-01-27T00:56:45;6.69;77.44
75985;DHT22;65033;44.660;37.758;2024-01-27T00:57:49;6.68;77.40
75985;DHT22;65033;44.660;37.758;2024-01-27T00:58:53;6.66;77.59
75985;DHT22;65033;44.660;37.758;2024-01-27T00:59:58;6.64;77.71
75985;DHT22;65033;44.660;37.758;2024-01-27T01:01:02;6.64;77.87
75985;DHT22;65033;44.660;37.758;2024-01-27T01:02:07;6.61;77.63
75985;DHT22;65033;44.660;37.758;2024-01-27T01:03:10;6.60;77.62
75985;DHT22;65033;44.660;37.758;2024-01-27T01:04:14;6.58;77.69
75985;DHT22;65033;44.660;37.758;2024-01-27T01:05:18;6.57;77.76
75985;DHT22;65033;44.660;37.758;2024-01-27T01:06:22;6.55;77.80
75985;DHT22;65033;44.660;37.758;2024-01-27T01:07:26;6.52;77.89
75985;DHT22;65033;44.660;37.758;2024-01-27T01:08:30;6.50;78.44
75985;DHT22;65033;44.660;37.758;2024-01-27T01:09:34;6.49;78.30
75985;DHT22;65033;44.660;37.758;2024-01-27T01:10:37;6.46;78.01
75985;DHT22;65033;44.660;37.758;2024-01-27T01:11:41;6.44;78.28
75985;DHT22;65033;44.660;37.758;2024-01-27T01:12:44;6.44;78.41
75985;DHT22;65033;44.660;37.758;2024-01-27T01:13:48;6.46;78.18
75985;DHT22;65033;44.660;37.758;2024-01-27T01:14:52;6.46;78.21
75985;DHT22;65033;44.660;37.758;2024-01-27T01:15:57;6.49;78.34
75985;DHT22;65033;44.660;37.758;2024-01-27T01:17:00;6.48;78.40
75985;DHT22;65033;44.660;37.758;2024-01-27T01:18:05;6.52;78.61
75985;DHT22;65033;44.660;37.758;2024-01-27T01:19:08;6.53;78.54
75985;DHT22;65033;44.660;37.758;2024-01-27T01:20:16;6.53;78.71
75985;DHT22;65033;44.660;37.758;2024-01-27T01:21:20;6.52;78.66
75985;DHT22;65033;44.660;37.758;2024-01-27T01:22:23;6.56;78.58
75985;DHT22;65033;44.660;37.758;2024-01-27T01:23:27;6.58;78.27
75985;DHT22;65033;44.660;37.758;2024-01-27T01:24:30;6.57;78.06
75985;DHT22;65033;44.660;37.758;2024-01-27T01:25:34;6.54;78.05
75985;DHT22;65033;44.660;37.758;2024-01-27T01:26:38;6.55;77.85
75985;DHT22;65033;44.660;37.758;2024-01-27T01:27:42;6.54;77.92
75985;DHT22;65033;44.660;37.758;2024-01-27T01:28:45;6.54;77.99
75985;DHT22;65033;44.660;37.758;2024-01-27T01:29:49;6.53;77.92
75985;DHT22;65033;44.660;37.758;2024-01-27T01:30:52;6.53;77.88
75985;DHT22;65033;44.660;37.758;2024-01-27T01:31:57;6.51;78.03
75985;DHT22;65033;44.660;37.758;2024-01-27T01:33:01;6.48;78.28
75985;DHT22;65033;44.660;37.758;2024-01-27T01:34:04;6.46;78.21
75985;DHT22;65033;44.660;37.758;2024-01-27T01:35:08;6.42;78.50
75985;DHT22;65033;44.660;37.758;2024-01-27T01:36:13;6.41;78.40
75985;DHT22;65033;44.660;37.758;2024-01-27T01:37:16;6.39;78.67
75985;DHT22;65033;44.660;37.758;2024-01-27T01:38:20;6.38;78.95
75985;DHT22;65033;44.660;37.758;2024-01-27T01:39:23;6.38;78.93
75985;DHT22;65033;44.660;37.758;2024-01-27T01:40:27;6.39;78.89
75985;DHT22;65033;44.660;37.758;2024-01-27T01:41:30;6.37;78.70
75985;DHT22;65033;44.660;37.758;2024-01-27T01:42:34;6.39;78.72
75985;DHT22;65033;44.660;37.758;2024-01-27T01:43:37;6.38;79.06
75985;DHT22;65033;44.660;37.758;2024-01-27T01:44:41;6.37;78.98
75985;DHT22;65033;44.660;37.758;2024-01-27T01:45:45;6.38;78.76
75985;DHT22;65033;44.660;37.758;2024-01-27T01:46:48;6.40;78.74
75985;DHT22;65033;44.660;37.758;2024-01-27T01:47:53;6.41;78.67
75985;DHT22;65033;44.660;37.758;2024-01-27T01:48:57;6.41;78.65
75985;DHT22;65033;44.660;37.758;2024-01-27T01:50:01;6.41;78.67
75985;DHT22;65033;44.660;37.758;2024-01-27T01:51:05;6.42;78.56
75985;DHT22;65033;44.660;37.758;2024-01-27T01:52:09;6.44;78.63
75985;DHT22;65033;44.660;37.758;2024-01-27T01:53:13;6.42;78.63
75985;DHT22;65033;44.660;37.758;2024-01-27T01:54:17;6.42;78.79
75985;DHT22;65033;44.660;37.758;2024-01-27T01:55:21;6.44;78.68
75985;DHT22;65033;44.660;37.758;2024-01-27T01:56:25;6.45;78.79
75985;DHT22;65033;44.660;37.758;2024-01-27T01:57:29;6.45;78.64
75985;DHT22;65033;44.660;37.758;2024-01-27T01:58:32;6.49;78.56
75985;DHT22;65033;44.660;37.758;2024-01-27T01:59:37;6.49;78.43
75985;DHT22;65033;44.660;37.758;2024-01-27T02:00:44;6.50;78.24
75985;DHT22;65033;44.660;37.758;2024-01-27T02:01:49;6.50;78.12
75985;DHT22;65033;44.660;37.758;2024-01-27T02:02:54;6.50;78.16
75985;DHT22;65033;44.660;37.758;2024-01-27T02:03:57;6.50;78.14
75985;DHT22;65033;44.660;37.758;2024-01-27T02:05:01;6.53;77.93
75985;DHT22;65033;44.660;37.758;2024-01-27T02:06:06;6.54;78.21
75985;DHT22;65033;44.660;37.758;2024-01-27T02:07:10;6.54;78.20
75985;DHT22;65033;44.660;37.758;2024-01-27T02:08:13;6.54;78.30
75985;DHT22;65033;44.660;37.758;2024-01-27T02:09:17;6.54;78.14
75985;DHT22;65033;44.660;37.758;2024-01-27T02:10:20;6.54;78.01
75985;DHT22;65033;44.660;37.758;2024-01-27T02:11:24;6.56;78.18
75985;DHT22;65033;44.660;37.758;2024-01-27T02:12:27;6.54;78.07
75985;DHT22;65033;44.660;37.758;2024-01-27T02:13:31;6.53;78.13
75985;DHT22;65033;44.660;37.758;2024-01-27T02:14:35;6.53;78.15
75985;DHT22;65033;44.660;37.758;2024-01-27T02:15:38;6.54;78.25
75985;DHT22;65033;44.660;37.758;2024-01-27T02:16:42;6.53;77.81
75985;DHT22;65033;44.660;37.758;2024-01-27T02:17:45;6.54;77.89
75985;DHT22;65033;44.660;37.758;2024-01-27T02:18:50;6.55;77.73
75985;DHT22;65033;44.660;37.758;2024-01-27T02:19:54;6.56;77.56
75985;DHT22;65033;44.660;37.758;2024-01-27T02:20:57;6.57;77.62
75985;DHT22;65033;44.660;37.758;2024-01-27T02:22:01;6.59;77.53
75985;DHT22;65033;44.660;37.758;2024-01-27T02:23:05;6.60;77.53
75985;DHT22;65033;44.660;37.758;2024-01-27T02:24:10;6.61;77.49
75985;DHT22;65033;44.660;37.758;2024-01-27T02:25:13;6.64;77.44
75985;DHT22;65033;44.660;37.758;2024-01-27T02:26:17;6.70;77.37
75985;DHT22;65033;44.660;37.758;2024-01-27T02:27:20;6.70;77.23
75985;DHT22;65033;44.660;37.758;2024-01-27T02:28:24;6.71;77.18
75985;DHT22;65033;44.660;37.758;2024-01-27T02:29:27;6.72;77.22
75985;DHT22;65033;44.660;37.758;2024-01-27T02:30:31;6.73;77.07
75985;DHT22;65033;44.660;37.758;2024-01-27T02:31:34;6.78;77.21
75985;DHT22;65033;44.660;37.758;2024-01-27T02:32:38;6.80;76.88
75985;DHT22;65033;44.660;37.758;2024-01-27T02:33:42;6.82;76.73
75985;DHT22;65033;44.660;37.758;2024-01-27T02:34:45;6.79;76.86
75985;DHT22;65033;44.660;37.758;2024-01-27T02:35:48;6.74;77.18
75985;DHT22;65033;44.660;37.758;2024-01-27T02:36:52;6.76;77.32
75985;DHT22;65033;44.660;37.758;2024-01-27T02:37:55;6.80;77.21
75985;DHT22;65033;44.660;37.758;2024-01-27T02:38:59;6.84;77.31
75985;DHT22;65033;44.660;37.758;2024-01-27T02:40:05;6.84;77.17
75985;DHT22;65033;44.660;37.758;2024-01-27T02:41:10;6.84;76.95
75985;DHT22;65033;44.660;37.758;2024-01-27T02:42:14;6.83;77.07
75985;DHT22;65033;44.660;37.758;2024-01-27T02:43:18;6.85;76.95
75985;DHT22;65033;44.660;37.758;2024-01-27T02:44:21;6.89;76.73
75985;DHT22;65033;44.660;37.758;2024-01-27T02:45:25;6.93;76.40
75985;DHT22;65033;44.660;37.758;2024-01-27T02:46:29;6.96;76.18
75985;DHT22;65033;44.660;37.758;2024-01-27T02:47:32;6.98;75.79
75985;DHT22;65033;44.660;37.758;2024-01-27T02:48:35;7.00;75.72
75985;DHT22;65033;44.660;37.758;2024-01-27T02:49:39;7.07;75.40
75985;DHT22;65033;44.660;37.758;2024-01-27T02:50:43;7.11;75.07
75985;DHT22;65033;44.660;37.758;2024-01-27T02:51:46;7.10;75.24
75985;DHT22;65033;44.660;37.758;2024-01-27T02:52:51;7.12;75.09
75985;DHT22;65033;44.660;37.758;2024-01-27T02:53:54;7.15;74.94
75985;DHT22;65033;44.660;37.758;2024-01-27T02:54:58;7.14;74.85
75985;DHT22;65033;44.660;37.758;2024-01-27T02:56:06;7.17;74.94
75985;DHT22;65033;44.660;37.758;2024-01-27T02:57:11;7.17;75.02
75985;DHT22;65033;44.660;37.758;2024-01-27T02:58:14;7.23;74.59
75985;DHT22;65033;44.660;37.758;2024-01-27T02:59:18;7.23;74.22
75985;DHT22;65033;44.660;37.758;2024-01-27T03:00:21;7.14;74.44
75985;DHT22;65033;44.660;37.758;2024-01-27T03:01:25;7.16;74.42
75985;DHT22;65033;44.660;37.758;2024-01-27T03:02:30;7.16;74.49
75985;DHT22;65033;44.660;37.758;2024-01-27T03:03:33;7.22;74.35
75985;DHT22;65033;44.660;37.758;2024-01-27T03:04:37;7.22;74.86
75985;DHT22;65033;44.660;37.758;2024-01-27T03:05:40;7.25;74.63
75985;DHT22;65033;44.660;37.758;2024-01-27T03:06:44;7.18;74.28
75985;DHT22;65033;44.660;37.758;2024-01-27T03:07:48;7.08;74.75
75985;DHT22;65033;44.660;37.758;2024-01-27T03:08:51;6.99;75.25
75985;DHT22;65033;44.660;37.758;2024-01-27T03:09:55;6.94;75.57
75985;DHT22;65033;44.660;37.758;2024-01-27T03:10:58;6.86;75.67
75985;DHT22;65033;44.660;37.758;2024-01-27T03:12:04;6.81;75.76
75985;DHT22;65033;44.660;37.758;2024-01-27T03:13:07;6.79;76.13
75985;DHT22;65033;44.660;37.758;2024-01-27T03:14:11;6.72;76.32
75985;DHT22;65033;44.660;37.758;2024-01-27T03:15:14;6.72;76.86
75985;DHT22;65033;44.660;37.758;2024-01-27T03:16:18;6.76;76.63
75985;DHT22;65033;44.660;37.758;2024-01-27T03:17:23;6.79;76.69
75985;DHT22;65033;44.660;37.758;2024-01-27T03:18:26;6.82;76.39
75985;DHT22;65033;44.660;37.758;2024-01-27T03:19:30;6.86;76.31
75985;DHT22;65033;44.660;37.758;2024-01-27T03:20:34;6.93;75.64
75985;DHT22;65033;44.660;37.758;2024-01-27T03:21:37;6.90;75.44
75985;DHT22;65033;44.660;37.758;2024-01-27T03:22:40;6.95;75.55
75985;DHT22;65033;44.660;37.758;2024-01-27T03:23:45;6.99;75.35
75985;DHT22;65033;44.660;37.758;2024-01-27T03:24:48;6.97;75.10
75985;DHT22;65033;44.660;37.758;2024-01-27T03:25:53;6.90;75.09
75985;DHT22;65033;44.660;37.758;2024-01-27T03:26:57;6.85;75.72
75985;DHT22;65033;44.660;37.758;2024-01-27T03:28:02;6.85;75.82
75985;DHT22;65033;44.660;37.758;2024-01-27T03:29:06;6.87;75.76
75985;DHT22;65033;44.660;37.758;2024-01-27T03:30:11;6.87;75.51
75985;DHT22;65033;44.660;37.758;2024-01-27T03:31:14;6.83;75.65
75985;DHT22;65033;44.660;37.758;2024-01-27T03:32:18;6.81;75.73
75985;DHT22;65033;44.660;37.758;2024-01-27T03:33:22;6.82;76.25
75985;DHT22;65033;44.660;37.758;2024-01-27T03:34:26;6.85;76.01
75985;DHT22;65033;44.660;37.758;2024-01-27T03:35:30;6.93;75.95
75985;DHT22;65033;44.660;37.758;2024-01-27T03:36:34;6.96;75.73
75985;DHT22;65033;44.660;37.758;2024-01-27T03:37:37;6.97;75.63
75985;DHT22;65033;44.660;37.758;2024-01-27T03:38:41;7.00;75.54
75985;DHT22;65033;44.660;37.758;2024-01-27T03:39:44;7.03;75.54
75985;DHT22;65033;44.660;37.758;2024-01-27T03:40:48;7.03;75.19
75985;DHT22;65033;44.660;37.758;2024-01-27T03:41:51;7.05;75.21
75985;DHT22;65033;44.660;37.758;2024-01-27T03:42:55;7.10;74.83
75985;DHT22;65033;44.660;37.758;2024-01-27T03:44:00;7.13;74.86
75985;DHT22;65033;44.660;37.758;2024-01-27T03:45:04;7.16;74.27
75985;DHT22;65033;44.660;37.758;2024-01-27T03:46:08;7.14;74.67
75985;DHT22;65033;44.660;37.758;2024-01-27T03:47:12;7.14;74.60
75985;DHT22;65033;44.660;37.758;2024-01-27T03:48:16;7.14;74.36
75985;DHT22;65033;44.660;37.758;2024-01-27T03:49:19;7.17;74.34
75985;DHT22;65033;44.660;37.758;2024-01-27T03:50:23;7.11;74.54
75985;DHT22;65033;44.660;37.758;2024-01-27T03:51:26;7.09;74.73
75985;DHT22;65033;44.660;37.758;2024-01-27T03:52:30;7.04;74.73
75985;DHT22;65033;44.660;37.758;2024-01-27T03:53:33;7.04;74.92
75985;DHT22;65033;44.660;37.758;2024-01-27T03:54:39;7.08;74.83
75985;DHT22;65033;44.660;37.758;2024-01-27T03:55:42;7.09;74.78
75985;DHT22;65033;44.660;37.758;2024-01-27T03:56:46;7.11;74.60
75985;DHT22;65033;44.660;37.758;2024-01-27T03:57:49;7.08;74.86
75985;DHT22;65033;44.660;37.758;2024-01-27T03:58:53;7.10;75.00
75985;DHT22;65033;44.660;37.758;2024-01-27T03:59:58;7.09;74.92
75985;DHT22;65033;44.660;37.758;2024-01-27T04:01:02;7.07;75.09
75985;DHT22;65033;44.660;37.758;2024-01-27T04:02:06;7.04;74.97
75985;DHT22;65033;44.660;37.758;2024-01-27T04:03:09;6.99;75.06
75985;DHT22;65033;44.660;37.758;2024-01-27T04:04:13;6.96;75.50
75985;DHT22;65033;44.660;37.758;2024-01-27T04:05:17;6.98;75.25
75985;DHT22;65033;44.660;37.758;2024-01-27T04:06:24;6.96;75.56
75985;DHT22;65033;44.660;37.758;2024-01-27T04:07:30;6.95;75.79
75985;DHT22;65033;44.660;37.758;2024-01-27T04:08:34;6.94;75.69
75985;DHT22;65033;44.660;37.758;2024-01-27T04:09:37;6.91;75.86
75985;DHT22;65033;44.660;37.758;2024-01-27T04:10:41;6.90;75.90
75985;DHT22;65033;44.660;37.758;2024-01-27T04:11:45;6.90;75.89
75985;DHT22;65033;44.660;37.758;2024-01-27T04:12:48;6.90;75.82
75985;DHT22;65033;44.660;37.758;2024-01-27T04:13:52;6.94;75.62
75985;DHT22;65033;44.660;37.758;2024-01-27T04:14:58;6.87;75.74
75985;DHT22;65033;44.660;37.758;2024-01-27T04:16:03;6.85;75.85
75985;DHT22;65033;44.660;37.758;2024-01-27T04:17:07;6.82;76.06
75985;DHT22;65033;44.660;37.758;2024-01-27T04:18:10;6.79;76.08
75985;DHT22;65033;44.660;37.758;2024-01-27T04:19:15;6.74;76.41
75985;DHT22;65033;44.660;37.758;2024-01-27T04:20:18;6.75;76.26
75985;DHT22;65033;44.660;37.758;2024-01-27T04:21:22;6.72;76.38
75985;DHT22;65033;44.660;37.758;2024-01-27T04:22:25;6.67;76.66
75985;DHT22;65033;44.660;37.758;2024-01-27T04:23:29;6.61;76.97
75985;DHT22;65033;44.660;37.758;2024-01-27T04:24:32;6.57;77.00
75985;DHT22;65033;44.660;37.758;2024-01-27T04:25:36;6.56;77.31
75985;DHT22;65033;44.660;37.758;2024-01-27T04:26:43;6.60;77.18
75985;DHT22;65033;44.660;37.758;2024-01-27T04:27:46;6.56;77.13
75985;DHT22;65033;44.660;37.758;2024-01-27T04:28:50;6.54;77.15
75985;DHT22;65033;44.660;37.758;2024-01-27T04:29:53;6.55;77.33
75985;DHT22;65033;44.660;37.758;2024-01-27T04:30:58;6.57;77.15
75985;DHT22;65033;44.660;37.758;2024-01-27T04:32:02;6.58;76.97
75985;DHT22;65033;44.660;37.758;2024-01-27T04:33:05;6.58;76.86
75985;DHT22;65033;44.660;37.758;2024-01-27T04:34:10;6.58;76.91
75985;DHT22;65033;44.660;37.758;2024-01-27T04:35:14;6.59;77.05
75985;DHT22;65033;44.660;37.758;2024-01-27T04:36:25;6.55;77.21
75985;DHT22;65033;44.660;37.758;2024-01-27T04:37:29;6.56;77.14
75985;DHT22;65033;44.660;37.758;2024-01-27T04:38:33;6.58;77.14
75985;DHT22;65033;44.660;37.758;2024-01-27T04:39:37;6.61;77.17
75985;DHT22;65033;44.660;37.758;2024-01-27T04:40:41;6.64;77.67
75985;DHT22;65033;44.660;37.758;2024-01-27T04:41:44;7.41;87.38
75985;DHT22;65033;44.660;37.758;2024-01-27T04:42:48;8.49;92.98
75985;DHT22;65033;44.660;37.758;2024-01-27T04:43:51;8.00;76.08
75985;DHT22;65033;44.660;37.758;2024-01-27T04:44:56;7.79;72.50
75985;DHT22;65033;44.660;37.758;2024-01-27T04:46:01;7.58;72.72
75985;DHT22;65033;44.660;37.758;2024-01-27T04:47:05;7.34;73.32
75985;DHT22;65033;44.660;37.758;2024-01-27T04:48:08;7.15;74.53
75985;DHT22;65033;44.660;37.758;2024-01-27T04:49:13;6.98;75.01
75985;DHT22;65033;44.660;37.758;2024-01-27T04:50:17;6.76;76.15
75985;DHT22;65033;44.660;37.758;2024-01-27T04:51:20;6.67;76.44
75985;DHT22;65033;44.660;37.758;2024-01-27T04:52:24;6.58;76.63
75985;DHT22;65033;44.660;37.758;2024-01-27T04:53:28;6.48;77.26
75985;DHT22;65033;44.660;37.758;2024-01-27T04:54:32;6.38;77.89
75985;DHT22;65033;44.660;37.758;2024-01-27T04:55:35;6.29;78.01
75985;DHT22;65033;44.660;37.758;2024-01-27T04:56:39;6.23;78.68
75985;DHT22;65033;44.660;37.758;2024-01-27T04:57:42;6.14;78.86
75985;DHT22;65033;44.660;37.758;2024-01-27T04:58:47;6.08;79.18
75985;DHT22;65033;44.660;37.758;2024-01-27T04:59:50;6.09;79.49
75985;DHT22;65033;44.660;37.758;2024-01-27T05:00:54;6.04;79.30
75985;DHT22;65033;44.660;37.758;2024-01-27T05:02:00;5.96;79.62
75985;DHT22;65033;44.660;37.758;2024-01-27T05:03:04;5.94;79.86
75985;DHT22;65033;44.660;37.758;2024-01-27T05:04:10;5.93;79.88
75985;DHT22;65033;44.660;37.758;2024-01-27T05:05:13;5.93;79.77
75985;DHT22;65033;44.660;37.758;2024-01-27T05:06:17;5.91;79.98
75985;DHT22;65033;44.660;37.758;2024-01-27T05:07:21;5.89;80.28
75985;DHT22;65033;44.660;37.758;2024-01-27T05:08:24;5.87;80.23
75985;DHT22;65033;44.660;37.758;2024-01-27T05:09:28;5.85;80.30
75985;DHT22;65033;44.660;37.758;2024-01-27T05:10:31;5.83;80.03
75985;DHT22;65033;44.660;37.758;2024-01-27T05:11:35;5.77;80.35
75985;DHT22;65033;44.660;37.758;2024-01-27T05:12:38;5.72;80.63
75985;DHT22;65033;44.660;37.758;2024-01-27T05:13:42;5.67;80.78
75985;DHT22;65033;44.660;37.758;2024-01-27T05:14:46;5.62;81.01
75985;DHT22;65033;44.660;37.758;2024-01-27T05:15:50;5.57;81.36
75985;DHT22;65033;44.660;37.758;2024-01-27T05:16:53;5.50;81.52
75985;DHT22;65033;44.660;37.758;2024-01-27T05:18:02;5.46;81.97
75985;DHT22;65033;44.660;37.758;2024-01-27T05:19:09;5.40;81.90
75985;DHT22;65033;44.660;37.758;2024-01-27T05:20:13;5.40;82.05
75985;DHT22;65033;44.660;37.758;2024-01-27T05:21:17;5.35;82.38
75985;DHT22;65033;44.660;37.758;2024-01-27T05:22:20;5.33;82.86
75985;DHT22;65033;44.660;37.758;2024-01-27T05:23:24;5.31;82.62
75985;DHT22;65033;44.660;37.758;2024-01-27T05:24:27;5.27;82.75
75985;DHT22;65033;44.660;37.758;2024-01-27T05:25:31;5.27;82.76
75985;DHT22;65033;44.660;37.758;2024-01-27T05:26:34;5.25;82.62
75985;DHT22;65033;44.660;37.758;2024-01-27T05:27:38;5.24;82.75
75985;DHT22;65033;44.660;37.758;2024-01-27T05:28:42;5.25;82.92
75985;DHT22;65033;44.660;37.758;2024-01-27T05:29:45;5.22;82.78
75985;DHT22;65033;44.660;37.758;2024-01-27T05:30:49;5.20;83.04
75985;DHT22;65033;44.660;37.758;2024-01-27T05:31:53;5.17;82.95
75985;DHT22;65033;44.660;37.758;2024-01-27T05:32:58;5.16;83.01
75985;DHT22;65033;44.660;37.758;2024-01-27T05:34:02;5.16;83.19
75985;DHT22;65033;44.660;37.758;2024-01-27T05:35:07;5.11;83.02
75985;DHT22;65033;44.660;37.758;2024-01-27T05:36:11;5.08;83.15
75985;DHT22;65033;44.660;37.758;2024-01-27T05:37:14;5.05;83.37
75985;DHT22;65033;44.660;37.758;2024-01-27T05:38:18;5.02;83.41
75985;DHT22;65033;44.660;37.758;2024-01-27T05:39:21;5.01;83.57
75985;DHT22;65033;44.660;37.758;2024-01-27T05:40:25;5.00;83.68
75985;DHT22;65033;44.660;37.758;2024-01-27T05:41:28;4.98;84.02
75985;DHT22;65033;44.660;37.758;2024-01-27T05:42:32;4.98;84.00
75985;DHT22;65033;44.660;37.758;2024-01-27T05:43:36;4.96;84.04
75985;DHT22;65033;44.660;37.758;2024-01-27T05:44:39;4.96;83.91
75985;DHT22;65033;44.660;37.758;2024-01-27T05:45:44;4.93;83.89
75985;DHT22;65033;44.660;37.758;2024-01-27T05:46:48;4.94;84.17
75985;DHT22;65033;44.660;37.758;2024-01-27T05:47:55;4.94;84.12
75985;DHT22;65033;44.660;37.758;2024-01-27T05:49:00;4.96;84.15
75985;DHT22;65033;44.660;37.758;2024-01-27T05:50:07;4.95;83.84
75985;DHT22;65033;44.660;37.758;2024-01-27T05:51:11;4.95;84.10
75985;DHT22;65033;44.660;37.758;2024-01-27T05:52:15;4.93;84.26
75985;DHT22;65033;44.660;37.758;2024-01-27T05:53:19;4.92;84.03
75985;DHT22;65033;44.660;37.758;2024-01-27T05:54:23;4.94;83.90
75985;DHT22;65033;44.660;37.758;2024-01-27T05:55:29;5.00;84.00
75985;DHT22;65033;44.660;37.758;2024-01-27T05:56:32;5.00;83.68
75985;DHT22;65033;44.660;37.758;2024-01-27T05:57:36;4.98;83.32
75985;DHT22;65033;44.660;37.758;2024-01-27T05:58:40;4.98;83.37
75985;DHT22;65033;44.660;37.758;2024-01-27T05:59:44;4.98;83.38
75985;DHT22;65033;44.660;37.758;2024-01-27T06:00:48;4.97;83.38
75985;DHT22;65033;44.660;37.758;2024-01-27T06:01:53;5.00;83.49
75985;DHT22;65033;44.660;37.758;2024-01-27T06:02:57;6.85;96.56
75985;DHT22;65033;44.660;37.758;2024-01-27T06:04:02;8.60;100.69
75985;DHT22;65033;44.660;37.758;2024-01-27T06:05:06;8.68;100.90
75985;DHT22;65033;44.660;37.758;2024-01-27T06:06:12;8.05;94.89
75985;DHT22;65033;44.660;37.758;2024-01-27T06:07:16;7.67;79.53
75985;DHT22;65033;44.660;37.758;2024-01-27T06:08:20;7.26;73.44
75985;DHT22;65033;44.660;37.758;2024-01-27T06:09:24;6.93;73.23
75985;DHT22;65033;44.660;37.758;2024-01-27T06:10:27;6.55;73.89
75985;DHT22;65033;44.660;37.758;2024-01-27T06:11:31;6.31;74.81
75985;DHT22;65033;44.660;37.758;2024-01-27T06:12:38;6.14;75.64
75985;DHT22;65033;44.660;37.758;2024-01-27T06:13:42;5.96;76.00
75985;DHT22;65033;44.660;37.758;2024-01-27T06:14:47;5.87;76.77
75985;DHT22;65033;44.660;37.758;2024-01-27T06:15:50;6.58;88.70
75985;DHT22;65033;44.660;37.758;2024-01-27T06:16:54;7.32;91.18
75985;DHT22;65033;44.660;37.758;2024-01-27T06:17:58;7.07;76.34
75985;DHT22;65033;44.660;37.758;2024-01-27T06:19:03;6.89;72.90
75985;DHT22;65033;44.660;37.758;2024-01-27T06:20:08;6.81;72.86
75985;DHT22;65033;44.660;37.758;2024-01-27T06:21:12;6.68;72.51
75985;DHT22;65033;44.660;37.758;2024-01-27T06:22:17;6.51;72.99
75985;DHT22;65033;44.660;37.758;2024-01-27T06:23:20;6.45;73.68
75985;DHT22;65033;44.660;37.758;2024-01-27T06:24:24;6.38;73.90
75985;DHT22;65033;44.660;37.758;2024-01-27T06:25:28;6.34;74.04
75985;DHT22;65033;44.660;37.758;2024-01-27T06:26:32;6.28;74.13
75985;DHT22;65033;44.660;37.758;2024-01-27T06:27:36;6.16;74.34
75985;DHT22;65033;44.660;37.758;2024-01-27T06:28:41;5.98;74.91
75985;DHT22;65033;44.660;37.758;2024-01-27T06:29:44;5.86;75.18
75985;DHT22;65033;44.660;37.758;2024-01-27T06:30:48;5.79;75.98
75985;DHT22;65033;44.660;37.758;2024-01-27T06:31:52;5.72;76.28
75985;DHT22;65033;44.660;37.758;2024-01-27T06:32:56;5.67;76.71
75985;DHT22;65033;44.660;37.758;2024-01-27T06:33:59;5.66;77.03
75985;DHT22;65033;44.660;37.758;2024-01-27T06:35:05;5.64;76.89
75985;DHT22;65033;44.660;37.758;2024-01-27T06:36:09;5.65;77.01
75985;DHT22;65033;44.660;37.758;2024-01-27T06:37:13;5.70;77.01
75985;DHT22;65033;44.660;37.758;2024-01-27T06:38:16;5.76;76.62
75985;DHT22;65033;44.660;37.758;2024-01-27T06:39:20;5.78;76.53
75985;DHT22;65033;44.660;37.758;2024-01-27T06:40:25;5.81;76.52
75985;DHT22;65033;44.660;37.758;2024-01-27T06:41:28;5.86;76.05
75985;DHT22;65033;44.660;37.758;2024-01-27T06:42:32;5.89;75.83
75985;DHT22;65033;44.660;37.758;2024-01-27T06:43:36;5.85;75.87